Time;durP1;ratioP1;P1;durP2;ratioP2;P2;SDS_P1;SDS_P2;PMS_P1;PMS_P2;Temp;Humidity;BMP_temperature;BMP_pressure;BME280_temperature;BME280_humidity;BME280_pressure;Samples;Min_cycle;Max_cycle;Signal;HPM_P1;HPM_P2
2021/04/16 00:00:37;;;;;;;13.75;2.25;;;21.20;52.20;;;;;;4107266;28;20519;-49
2021/04/16 00:02:39;;;;;;;4.53;1.75;;;21.20;52.20;;;;;;4112045;28;20048;-49
2021/04/16 00:04:41;;;;;;;3.80;1.90;;;21.20;52.30;;;;;;4118831;28;20038;-52
2021/04/16 00:06:43;;;;;;;8.35;1.73;;;21.20;52.30;;;;;;4122860;28;20030;-50
2021/04/16 00:08:46;;;;;;;4.18;1.80;;;21.20;52.50;;;;;;4116483;28;20038;-48
2021/04/16 00:10:58;;;;;;;3.42;1.85;;;21.20;52.50;;;;;;4125146;28;20690;-46
2021/04/16 00:13:01;;;;;;;8.02;2.50;;;21.20;52.70;;;;;;4121207;28;20096;-46
2021/04/16 00:15:10;;;;;;;6.95;2.00;;;21.20;52.70;;;;;;4121571;28;20089;-44
2021/04/16 00:17:12;;;;;;;5.85;2.17;;;21.30;52.80;;;;;;4117824;28;20046;-48
2021/04/16 00:19:14;;;;;;;6.18;2.33;;;21.30;52.70;;;;;;4115461;28;20173;-47
2021/04/16 00:21:17;;;;;;;6.83;2.30;;;21.30;52.70;;;;;;4114763;28;20046;-47
2021/04/16 00:23:19;;;;;;;8.40;2.67;;;21.30;52.70;;;;;;4124034;28;20448;-49
2021/04/16 00:25:25;;;;;;;10.30;2.55;;;21.30;52.80;;;;;;4105525;28;20058;-44
2021/04/16 00:27:27;;;;;;;5.28;2.33;;;21.30;52.80;;;;;;4123586;28;20046;-48
2021/04/16 00:29:29;;;;;;;7.97;2.08;;;21.30;52.90;;;;;;4122006;28;20953;-50
2021/04/16 00:31:33;;;;;;;6.68;2.35;;;21.30;52.90;;;;;;4126791;28;20030;-46
2021/04/16 00:33:35;;;;;;;9.40;2.20;;;21.30;52.80;;;;;;4114517;28;20050;-46
2021/04/16 00:35:37;;;;;;;6.30;2.22;;;21.30;52.80;;;;;;4122593;28;20074;-47
2021/04/16 00:37:39;;;;;;;6.80;2.13;;;21.40;52.80;;;;;;4122753;28;20491;-45
2021/04/16 00:39:42;;;;;;;4.75;1.90;;;21.30;52.70;;;;;;4122598;28;20574;-48
2021/04/16 00:41:44;;;;;;;8.05;2.30;;;21.40;52.80;;;;;;4115963;28;20051;-48
2021/04/16 00:43:46;;;;;;;8.98;2.22;;;21.40;53.00;;;;;;4107912;28;20056;-44
2021/04/16 00:45:49;;;;;;;5.17;2.20;;;21.40;53.30;;;;;;4108717;28;20079;-45
2021/04/16 00:47:57;;;;;;;6.28;2.47;;;21.40;53.50;;;;;;4112077;28;20624;-46
2021/04/16 00:50:12;;;;;;;9.32;3.42;;;21.40;54.20;;;;;;4122353;28;20117;-46
2021/04/16 00:52:28;;;;;;;4.93;2.17;;;21.40;54.50;;;;;;4102997;28;20130;-48
2021/04/16 00:54:41;;;;;;;5.38;2.38;;;21.40;54.50;;;;;;4122035;28;20042;-47
2021/04/16 00:56:45;;;;;;;7.05;2.78;;;21.50;54.40;;;;;;4135669;28;20136;-45
2021/04/16 00:58:48;;;;;;;5.13;1.77;;;21.50;54.30;;;;;;4122870;28;20056;-51
2021/04/16 01:00:53;;;;;;;4.82;2.13;;;21.50;54.20;;;;;;4119190;28;20035;-50
2021/04/16 01:02:55;;;;;;;6.25;2.15;;;21.60;54.10;;;;;;4120110;28;20503;-49
2021/04/16 01:04:57;;;;;;;17.13;2.87;;;21.60;54.10;;;;;;4122563;28;20038;-44
2021/04/16 01:07:02;;;;;;;9.88;2.42;;;21.70;54.20;;;;;;4123557;28;20503;-47
2021/04/16 01:09:05;;;;;;;11.55;2.28;;;21.70;54.20;;;;;;4118799;28;20042;-48
2021/04/16 01:11:08;;;;;;;7.15;2.13;;;21.80;54.30;;;;;;4124265;28;20022;-47
2021/04/16 01:13:10;;;;;;;4.95;2.05;;;21.80;54.30;;;;;;4127655;28;20031;-50
2021/04/16 01:15:53;;;;;;;8.20;1.90;;;21.80;54.30;;;;;;4123543;28;20095;-48
2021/04/16 01:17:48;;;;;;;6.72;1.92;;;21.80;54.30;;;;;;4119857;28;20460;-48
2021/04/16 01:20:13;;;;;;;6.45;1.92;;;21.90;54.30;;;;;;4127480;28;20023;-47
2021/04/16 01:22:35;;;;;;;12.95;2.33;;;21.90;54.30;;;;;;4120556;28;20058;-47
2021/04/16 01:24:38;;;;;;;10.13;2.63;;;21.90;54.30;;;;;;4125034;28;20069;-47
2021/04/16 01:26:40;;;;;;;11.18;2.08;;;21.90;54.40;;;;;;4122221;28;20041;-49
2021/04/16 01:28:42;;;;;;;9.10;2.20;;;21.90;54.30;;;;;;4119346;28;20116;-45
2021/04/16 01:31:00;;;;;;;3.53;1.77;;;22.00;54.30;;;;;;4121337;28;20272;-48
2021/04/16 01:33:03;;;;;;;12.15;2.10;;;22.00;54.30;;;;;;4122751;28;20045;-47
2021/04/16 01:35:09;;;;;;;8.25;2.17;;;22.00;54.30;;;;;;4118788;28;20436;-47
2021/04/16 01:37:11;;;;;;;7.55;2.05;;;22.00;54.30;;;;;;4121741;28;20026;-47
2021/04/16 01:39:13;;;;;;;6.10;1.60;;;22.00;54.30;;;;;;4121492;28;20113;-50
2021/04/16 01:41:17;;;;;;;6.97;1.67;;;22.00;54.20;;;;;;4114741;28;20034;-51
2021/04/16 01:43:27;;;;;;;7.05;2.08;;;22.00;54.10;;;;;;4124048;28;20125;-49
2021/04/16 01:45:30;;;;;;;2.42;1.38;;;22.00;54.10;;;;;;4108788;28;20035;-48
2021/04/16 01:47:34;;;;;;;6.70;1.60;;;22.10;54.20;;;;;;4109786;28;20104;-48
2021/04/16 01:49:42;;;;;;;7.53;1.88;;;22.10;54.10;;;;;;4120472;28;20094;-48
2021/04/16 01:51:45;;;;;;;7.07;2.20;;;22.10;54.20;;;;;;4124278;28;20120;-52
2021/04/16 01:53:48;;;;;;;10.18;1.80;;;22.10;54.30;;;;;;4120370;28;20037;-53
2021/04/16 01:55:53;;;;;;;5.63;2.00;;;22.10;54.40;;;;;;4127432;28;20549;-47
2021/04/16 01:57:55;;;;;;;8.07;1.95;;;22.10;54.60;;;;;;4121491;28;20129;-50
2021/04/16 01:59:58;;;;;;;6.18;2.08;;;22.10;54.70;;;;;;4118927;28;20127;-56
2021/04/16 02:02:00;;;;;;;9.97;2.07;;;22.20;54.70;;;;;;4118299;28;20639;-51
2021/04/16 02:04:03;;;;;;;8.60;1.83;;;22.20;54.70;;;;;;4118467;28;20766;-48
2021/04/16 02:06:05;;;;;;;6.47;1.90;;;22.20;54.60;;;;;;4109492;28;20072;-48
2021/04/16 02:08:07;;;;;;;12.80;2.92;;;22.20;54.70;;;;;;4110763;28;20054;-49
2021/04/16 02:10:11;;;;;;;6.20;2.20;;;22.20;54.80;;;;;;4121388;28;20034;-49
2021/04/16 02:12:15;;;;;;;5.60;2.08;;;22.20;54.70;;;;;;4124002;28;20057;-50
2021/04/16 02:14:21;;;;;;;5.00;1.80;;;22.20;54.70;;;;;;4117318;28;20573;-50
2021/04/16 02:16:23;;;;;;;6.85;2.20;;;22.20;54.70;;;;;;4117432;28;20401;-50
2021/04/16 02:18:25;;;;;;;6.50;2.05;;;22.20;54.70;;;;;;4128424;28;20373;-52
2021/04/16 02:20:31;;;;;;;6.55;2.42;;;22.20;54.50;;;;;;4119238;28;20526;-52
2021/04/16 02:22:33;;;;;;;6.25;2.20;;;22.30;54.60;;;;;;4120896;28;20109;-50
2021/04/16 02:24:35;;;;;;;8.27;2.25;;;22.30;54.60;;;;;;4115817;28;20094;-57
2021/04/16 02:26:38;;;;;;;6.13;2.10;;;22.30;54.60;;;;;;4130382;28;20519;-54
2021/04/16 02:28:40;;;;;;;4.55;2.20;;;22.30;54.70;;;;;;4123243;28;20502;-55
2021/04/16 02:30:42;;;;;;;5.82;2.10;;;22.30;54.60;;;;;;4127485;28;20117;-51
2021/04/16 02:32:44;;;;;;;3.83;1.80;;;22.30;54.50;;;;;;4122987;28;20035;-51
2021/04/16 02:34:47;;;;;;;6.05;2.38;;;22.40;54.50;;;;;;4129873;28;20030;-57
2021/04/16 02:36:51;;;;;;;7.50;2.50;;;22.40;54.50;;;;;;4089502;28;20045;-55
2021/04/16 02:38:56;;;;;;;6.75;2.22;;;22.40;54.50;;;;;;4129256;28;20049;-51
2021/04/16 02:40:58;;;;;;;5.60;2.08;;;22.40;54.50;;;;;;4122603;28;20087;-48
2021/04/16 02:43:01;;;;;;;8.73;2.55;;;22.40;54.50;;;;;;4121136;28;20064;-47
2021/04/16 02:45:08;;;;;;;7.65;2.03;;;22.40;54.50;;;;;;4119097;28;20074;-54
2021/04/16 02:47:12;;;;;;;6.88;2.20;;;22.40;54.50;;;;;;4120730;28;20076;-55
2021/04/16 02:49:14;;;;;;;5.22;2.13;;;22.40;54.50;;;;;;4127658;28;20389;-53
2021/04/16 02:51:16;;;;;;;4.95;2.25;;;22.40;54.60;;;;;;4119797;28;20100;-50
2021/04/16 02:53:18;;;;;;;4.65;1.92;;;22.40;54.60;;;;;;4127988;28;20042;-48
2021/04/16 02:55:20;;;;;;;9.35;2.25;;;22.40;54.60;;;;;;4123824;28;20184;-53
2021/04/16 02:57:24;;;;;;;6.35;2.05;;;22.50;54.70;;;;;;4124839;28;20025;-51
2021/04/16 02:59:27;;;;;;;19.30;2.95;;;22.50;54.70;;;;;;4122567;28;20132;-46
2021/04/16 03:01:29;;;;;;;38.55;5.10;;;22.50;54.70;;;;;;4122966;28;20144;-46
2021/04/16 03:03:34;;;;;;;34.07;4.57;;;22.50;54.80;;;;;;4122718;28;20074;-51
2021/04/16 03:05:36;;;;;;;23.80;3.92;;;22.50;54.80;;;;;;4123468;28;20042;-51
2021/04/16 03:07:38;;;;;;;18.17;3.15;;;22.50;54.60;;;;;;4120343;28;20105;-48
2021/04/16 03:09:40;;;;;;;20.40;2.90;;;22.50;53.60;;;;;;4118376;28;20039;-48
2021/04/16 03:11:43;;;;;;;9.48;2.38;;;22.50;53.40;;;;;;4122566;28;20238;-49
2021/04/16 03:13:46;;;;;;;12.68;2.88;;;22.50;52.90;;;;;;4122479;28;20076;-51
2021/04/16 03:15:48;;;;;;;11.18;2.40;;;22.50;52.90;;;;;;4122503;28;20520;-50
2021/04/16 03:17:50;;;;;;;9.65;2.25;;;22.50;52.80;;;;;;4128788;28;20139;-47
2021/04/16 03:19:53;;;;;;;10.38;2.40;;;22.50;52.70;;;;;;4126377;28;20026;-47
2021/04/16 03:21:56;;;;;;;8.90;2.10;;;22.50;52.50;;;;;;4119300;28;20046;-49
2021/04/16 03:23:58;;;;;;;10.48;2.42;;;22.50;52.50;;;;;;4123500;28;20444;-49
2021/04/16 03:26:00;;;;;;;7.18;2.17;;;22.50;52.50;;;;;;4118891;28;20026;-53
2021/04/16 03:28:02;;;;;;;7.45;2.05;;;22.50;52.50;;;;;;4129138;28;20558;-48
2021/04/16 03:30:10;;;;;;;6.80;2.00;;;22.50;52.50;;;;;;4111944;28;20070;-50
2021/04/16 03:32:12;;;;;;;7.03;1.70;;;22.50;52.60;;;;;;4113765;28;20362;-47
2021/04/16 03:34:14;;;;;;;7.43;2.47;;;22.40;52.50;;;;;;4118159;28;20567;-52
2021/04/16 03:36:16;;;;;;;5.82;2.05;;;22.40;52.60;;;;;;4116418;28;20054;-46
2021/04/16 03:38:18;;;;;;;4.13;1.83;;;22.50;52.60;;;;;;4107214;28;20027;-51
2021/04/16 03:40:25;;;;;;;5.80;1.92;;;22.50;52.50;;;;;;4126541;28;20086;-47
2021/04/16 03:42:27;;;;;;;4.63;1.95;;;22.50;52.50;;;;;;4120229;28;20558;-48
2021/04/16 03:44:29;;;;;;;8.48;2.50;;;22.50;52.50;;;;;;4120462;28;20455;-48
2021/04/16 03:46:31;;;;;;;6.97;1.90;;;22.50;52.40;;;;;;4106017;28;20134;-52
2021/04/16 03:48:33;;;;;;;7.10;2.05;;;22.50;52.40;;;;;;4114867;28;20093;-48
2021/04/16 03:50:37;;;;;;;5.35;2.03;;;22.50;52.50;;;;;;4126170;28;20581;-48
2021/04/16 03:52:39;;;;;;;7.97;2.00;;;22.60;52.50;;;;;;4127533;28;20030;-51
2021/04/16 03:54:41;;;;;;;6.57;2.40;;;22.50;52.40;;;;;;4122194;28;20045;-49
2021/04/16 03:56:43;;;;;;;6.53;2.13;;;22.50;52.40;;;;;;4119824;28;20042;-47
2021/04/16 03:58:46;;;;;;;6.23;2.63;;;22.50;52.50;;;;;;4125570;28;20408;-46
2021/04/16 04:00:48;;;;;;;7.05;2.20;;;22.50;52.50;;;;;;4121296;28;20606;-46
2021/04/16 04:02:50;;;;;;;6.57;2.13;;;22.50;52.60;;;;;;4128666;28;20045;-47
2021/04/16 04:04:52;;;;;;;7.13;2.45;;;22.50;52.60;;;;;;4122182;28;20124;-46
2021/04/16 04:06:54;;;;;;;5.43;2.30;;;22.50;52.70;;;;;;4109440;28;20034;-49
2021/04/16 04:08:56;;;;;;;6.85;2.22;;;22.50;52.70;;;;;;4111914;28;20039;-51
2021/04/16 04:10:59;;;;;;;4.57;2.03;;;22.50;52.80;;;;;;4122734;28;20095;-50
2021/04/16 04:13:02;;;;;;;6.17;2.47;;;22.40;52.70;;;;;;4116196;28;20053;-53
2021/04/16 04:15:06;;;;;;;9.65;3.08;;;22.40;52.70;;;;;;4128430;28;20041;-51
2021/04/16 04:17:09;;;;;;;5.60;2.17;;;22.40;52.70;;;;;;4120160;28;20092;-50
2021/04/16 04:19:11;;;;;;;6.28;2.17;;;22.40;52.70;;;;;;4115466;28;20034;-51
2021/04/16 04:21:13;;;;;;;6.90;2.05;;;22.40;52.60;;;;;;4104841;28;20039;-49
2021/04/16 04:23:15;;;;;;;6.93;2.17;;;22.50;52.70;;;;;;4104635;28;20101;-49
2021/04/16 04:25:22;;;;;;;5.65;2.00;;;22.40;52.60;;;;;;4121666;28;20114;-51
2021/04/16 04:27:24;;;;;;;5.95;2.22;;;22.40;52.40;;;;;;4120878;28;20034;-48
2021/04/16 04:29:27;;;;;;;4.97;1.73;;;22.50;52.50;;;;;;4121615;28;20050;-48
2021/04/16 04:31:29;;;;;;;3.83;1.73;;;22.50;52.50;;;;;;4122719;28;20023;-53
2021/04/16 04:33:31;;;;;;;6.53;2.13;;;22.50;52.40;;;;;;4119471;28;20049;-48
2021/04/16 04:35:34;;;;;;;5.45;2.13;;;22.50;52.50;;;;;;4119432;28;20073;-48
2021/04/16 04:37:36;;;;;;;5.72;1.95;;;22.40;52.40;;;;;;4129664;28;20030;-51
2021/04/16 04:39:42;;;;;;;7.78;2.53;;;22.50;52.40;;;;;;4107070;28;20061;-49
2021/04/16 04:41:45;;;;;;;6.30;2.38;;;22.40;52.40;;;;;;4115742;28;20118;-48
2021/04/16 04:43:48;;;;;;;6.15;2.22;;;22.40;52.30;;;;;;4121891;28;20067;-52
2021/04/16 04:45:50;;;;;;;6.20;2.17;;;22.50;52.50;;;;;;4120554;28;20042;-50
2021/04/16 04:47:52;;;;;;;7.53;2.72;;;22.50;52.40;;;;;;4117210;28;20033;-46
2021/04/16 04:49:55;;;;;;;6.40;2.13;;;22.50;52.30;;;;;;4122976;28;20034;-46
2021/04/16 04:52:36;;;;;;;6.82;2.85;;;22.50;52.20;;;;;;4105976;28;20045;-46
2021/04/16 04:54:40;;;;;;;7.25;2.75;;;22.50;52.00;;;;;;4119455;28;20571;-48
2021/04/16 04:56:42;;;;;;;6.60;2.25;;;22.50;52.10;;;;;;4122011;28;20095;-48
2021/04/16 04:58:44;;;;;;;5.75;1.92;;;22.50;52.00;;;;;;4128319;28;20049;-45
2021/04/16 05:00:46;;;;;;;5.18;2.08;;;22.50;52.20;;;;;;4119632;28;20435;-45
2021/04/16 05:02:48;;;;;;;7.13;2.55;;;22.50;52.80;;;;;;4121741;28;20090;-48
2021/04/16 05:04:51;;;;;;;6.88;2.17;;;22.50;53.00;;;;;;4125803;28;20084;-50
2021/04/16 05:06:53;;;;;;;7.22;2.33;;;22.50;53.30;;;;;;4120047;28;20049;-46
2021/04/16 05:08:55;;;;;;;7.47;2.47;;;22.60;53.50;;;;;;4122900;28;20050;-49
2021/04/16 05:10:57;;;;;;;7.03;2.10;;;22.60;53.70;;;;;;4122545;28;20368;-46
2021/04/16 05:13:00;;;;;;;9.47;2.60;;;22.60;53.60;;;;;;4129302;28;20032;-48
2021/04/16 05:15:03;;;;;;;7.20;1.90;;;22.70;53.90;;;;;;4109948;28;20062;-46
2021/04/16 05:17:05;;;;;;;13.05;3.15;;;22.70;54.20;;;;;;4110064;28;20085;-45
2021/04/16 05:19:07;;;;;;;13.90;2.90;;;22.80;53.90;;;;;;4104469;28;20132;-46
2021/04/16 05:21:10;;;;;;;17.48;3.08;;;22.80;53.80;;;;;;4108600;28;20034;-52
2021/04/16 05:23:12;;;;;;;14.90;3.80;;;22.90;54.30;;;;;;4103667;28;20108;-49
2021/04/16 05:25:14;;;;;;;13.95;2.50;;;22.90;54.10;;;;;;4105371;28;20418;-49
2021/04/16 05:27:18;;;;;;;11.23;2.67;;;23.00;53.80;;;;;;4118045;28;20045;-52
2021/04/16 05:29:20;;;;;;;13.63;2.35;;;23.00;53.60;;;;;;4125088;28;20406;-46
2021/04/16 05:31:23;;;;;;;9.80;2.95;;;22.90;53.50;;;;;;4122088;28;20607;-48
2021/04/16 05:33:25;;;;;;;7.30;2.20;;;23.00;53.10;;;;;;4120240;28;20050;-46
2021/04/16 05:35:27;;;;;;;5.97;1.80;;;23.00;52.10;;;;;;4122383;28;20165;-50
2021/04/16 05:37:29;;;;;;;8.85;2.40;;;23.00;51.80;;;;;;4124468;28;20503;-50
2021/04/16 05:39:31;;;;;;;12.48;2.03;;;23.00;52.00;;;;;;4126944;28;20337;-49
2021/04/16 05:41:33;;;;;;;12.68;2.30;;;23.00;52.50;;;;;;4117014;28;20034;-48
2021/04/16 05:43:35;;;;;;;12.07;2.08;;;23.00;52.70;;;;;;4119945;28;21350;-47
2021/04/16 05:45:37;;;;;;;5.25;1.77;;;23.00;53.10;;;;;;4121157;28;20599;-45
2021/04/16 05:47:40;;;;;;;4.78;1.77;;;23.10;53.20;;;;;;4121640;28;20033;-48
2021/04/16 05:49:42;;;;;;;5.35;1.70;;;23.10;53.40;;;;;;4121593;28;20614;-49
2021/04/16 05:51:44;;;;;;;5.53;1.70;;;23.10;53.60;;;;;;4121467;28;20030;-49
2021/04/16 05:53:46;;;;;;;4.38;1.60;;;23.20;53.60;;;;;;4117348;28;20034;-50
2021/04/16 05:55:48;;;;;;;4.72;1.80;;;23.20;53.50;;;;;;4128244;28;20040;-48
2021/04/16 05:57:50;;;;;;;7.05;1.92;;;23.20;53.70;;;;;;4126651;28;20041;-49
2021/04/16 05:59:53;;;;;;;6.68;2.17;;;23.20;53.80;;;;;;4123759;28;20085;-47
2021/04/16 06:01:55;;;;;;;6.03;1.90;;;23.20;53.70;;;;;;4112172;28;20035;-46
2021/04/16 06:03:58;;;;;;;5.72;1.63;;;23.20;53.70;;;;;;4124620;28;20240;-44
2021/04/16 06:06:00;;;;;;;5.68;1.95;;;23.20;53.80;;;;;;4106446;28;20730;-45
2021/04/16 06:08:03;;;;;;;4.43;1.77;;;23.30;53.90;;;;;;4104760;28;20061;-45
2021/04/16 06:10:08;;;;;;;9.75;2.17;;;23.30;53.90;;;;;;4111569;28;20031;-45
2021/04/16 06:12:10;;;;;;;5.38;1.90;;;23.30;53.90;;;;;;4105271;28;20050;-44
2021/04/16 06:14:12;;;;;;;14.03;1.83;;;23.30;53.80;;;;;;4110727;28;20027;-45
2021/04/16 06:16:14;;;;;;;5.63;1.80;;;23.30;53.90;;;;;;4118624;28;20348;-46
2021/04/16 06:18:17;;;;;;;7.05;1.88;;;23.40;53.90;;;;;;4122620;28;20543;-47
2021/04/16 06:20:21;;;;;;;8.05;1.95;;;23.30;53.90;;;;;;4117923;28;20069;-43
2021/04/16 06:22:23;;;;;;;4.95;1.63;;;23.40;53.90;;;;;;4121903;28;20078;-47
2021/04/16 06:24:25;;;;;;;6.88;1.92;;;23.40;53.90;;;;;;4106350;28;20054;-45
2021/04/16 06:26:27;;;;;;;5.13;1.45;;;23.40;53.80;;;;;;4108615;28;20129;-45
2021/04/16 06:28:29;;;;;;;5.72;2.05;;;23.40;53.90;;;;;;4138546;28;20041;-47
2021/04/16 06:30:32;;;;;;;12.07;1.90;;;23.40;53.90;;;;;;4124325;28;20679;-46
2021/04/16 06:32:35;;;;;;;4.13;1.92;;;23.40;53.90;;;;;;4113196;28;20133;-55
2021/04/16 06:34:37;;;;;;;9.25;2.00;;;23.40;53.90;;;;;;4122692;28;20030;-46
2021/04/16 06:36:39;;;;;;;8.15;2.13;;;23.40;53.40;;;;;;4104784;28;20085;-51
2021/04/16 06:38:43;;;;;;;6.93;2.00;;;23.40;53.20;;;;;;4105427;28;20069;-50
2021/04/16 06:40:51;;;;;;;7.15;1.80;;;23.40;53.40;;;;;;4116686;28;20304;-51
2021/04/16 06:42:53;;;;;;;7.70;1.77;;;23.40;53.50;;;;;;4117220;28;20416;-51
2021/04/16 06:44:58;;;;;;;9.65;2.05;;;23.40;53.50;;;;;;4121005;28;20042;-52
2021/04/16 06:47:21;;;;;;;6.05;1.85;;;23.30;53.60;;;;;;4118955;28;20499;-53
2021/04/16 06:49:28;;;;;;;7.10;1.80;;;23.40;52.50;;;;;;4116758;28;20704;-49
2021/04/16 06:51:33;;;;;;;10.43;2.25;;;23.30;51.80;;;;;;4088217;28;20049;-49
2021/04/16 06:54:05;;;;;;;9.70;2.05;;;23.30;52.20;;;;;;4133378;28;20062;-49
2021/04/16 06:56:18;;;;;;;6.78;2.10;;;23.20;52.10;;;;;;4115954;28;20034;-51
2021/04/16 06:58:31;;;;;;;9.00;2.05;;;23.20;50.90;;;;;;4115337;28;20054;-48
2021/04/16 07:01:09;;;;;;;4.70;1.95;;;23.10;50.60;;;;;;4126635;28;20160;-53
2021/04/16 07:03:24;;;;;;;5.30;1.73;;;23.10;50.60;;;;;;4122665;28;20054;-49
2021/04/16 07:05:39;;;;;;;5.38;2.42;;;23.00;50.60;;;;;;4122596;28;20475;-46
2021/04/16 07:07:45;;;;;;;15.18;2.40;;;23.00;50.80;;;;;;4118858;28;20030;-49
2021/04/16 07:09:50;;;;;;;6.38;2.05;;;22.90;51.50;;;;;;4140282;28;20548;-46
2021/04/16 07:12:21;;;;;;;4.47;2.13;;;22.90;52.30;;;;;;4125268;28;20506;-49
2021/04/16 07:14:46;;;;;;;7.18;2.13;;;22.90;52.70;;;;;;4116747;28;20049;-46
2021/04/16 07:16:48;;;;;;;3.33;1.88;;;22.90;53.00;;;;;;4124666;28;20073;-52
2021/04/16 07:18:54;;;;;;;5.57;1.73;;;22.90;53.30;;;;;;4111925;28;20046;-48
2021/04/16 07:20:56;;;;;;;6.20;2.03;;;22.90;53.50;;;;;;4122522;28;20077;-47
2021/04/16 07:22:59;;;;;;;5.55;2.03;;;23.00;53.80;;;;;;4154208;28;20140;-46
2021/04/16 07:25:29;;;;;;;6.38;1.85;;;23.00;53.80;;;;;;4131950;28;20030;-50
2021/04/16 07:27:47;;;;;;;6.57;2.03;;;22.90;53.90;;;;;;4133244;28;20042;-50
2021/04/16 07:29:54;;;;;;;6.13;1.90;;;22.90;54.00;;;;;;4130927;28;20034;-53
2021/04/16 07:31:58;;;;;;;4.53;1.58;;;22.90;54.10;;;;;;4139663;28;20026;-51
2021/04/16 07:34:03;;;;;;;5.47;2.17;;;22.90;54.00;;;;;;4131479;28;20030;-50
2021/04/16 07:36:34;;;;;;;5.63;1.83;;;22.90;54.10;;;;;;4132218;28;20033;-47
2021/04/16 07:38:36;;;;;;;2.50;1.52;;;22.90;54.20;;;;;;4131003;28;20478;-52
2021/04/16 07:40:42;;;;;;;5.17;1.93;;;23.00;54.30;;;;;;4137985;28;20092;-53
2021/04/16 07:42:47;;;;;;;6.55;2.22;;;23.00;54.20;;;;;;4131718;28;20077;-51
2021/04/16 07:45:06;;;;;;;4.53;1.50;;;23.00;54.30;;;;;;4131788;28;20946;-48
2021/04/16 07:47:14;;;;;;;5.43;1.70;;;23.00;54.20;;;;;;4132302;28;20062;-54
2021/04/16 07:49:23;;;;;;;4.78;1.80;;;23.00;54.30;;;;;;4139465;28;20040;-50
2021/04/16 07:51:30;;;;;;;4.53;1.67;;;23.00;54.00;;;;;;4120262;28;20039;-53
2021/04/16 07:53:46;;;;;;;6.38;1.83;;;23.00;52.20;;;;;;4123289;28;20515;-46
2021/04/16 07:56:12;;;;;;;9.88;3.67;;;22.90;51.40;;;;;;4135219;28;20080;-48
2021/04/16 07:58:21;;;;;;;11.00;4.07;;;22.90;52.40;;;;;;4138779;28;20129;-52
2021/04/16 08:00:24;;;;;;;9.32;3.78;;;22.90;52.70;;;;;;4134746;28;20045;-47
2021/04/16 08:02:35;;;;;;;9.45;3.90;;;22.90;52.90;;;;;;4137351;28;20054;-47
2021/04/16 08:04:37;;;;;;;6.25;3.00;;;22.90;53.20;;;;;;4136268;28;20371;-50
2021/04/16 08:06:46;;;;;;;9.63;3.10;;;22.90;53.40;;;;;;4134981;28;20033;-52
2021/04/16 08:08:48;;;;;;;7.72;3.20;;;22.90;53.60;;;;;;4126095;28;20065;-49
2021/04/16 08:10:58;;;;;;;7.88;2.95;;;22.90;53.70;;;;;;4121977;28;20058;-47
2021/04/16 08:13:10;;;;;;;5.60;2.70;;;22.90;53.70;;;;;;4132278;28;20034;-49
2021/04/16 08:15:21;;;;;;;7.10;3.03;;;22.90;53.90;;;;;;4126996;28;20543;-51
2021/04/16 08:17:30;;;;;;;5.50;2.33;;;22.90;54.00;;;;;;4121970;28;20108;-52
2021/04/16 08:19:37;;;;;;;6.25;2.40;;;22.90;54.10;;;;;;4143256;28;20446;-50
2021/04/16 08:21:49;;;;;;;5.63;2.35;;;22.90;54.20;;;;;;4132226;28;20100;-48
2021/04/16 08:24:17;;;;;;;4.20;2.08;;;23.00;54.30;;;;;;4129624;28;20140;-53
2021/04/16 08:26:24;;;;;;;4.57;1.80;;;23.00;54.40;;;;;;4127340;28;23998;-50
2021/04/16 08:28:45;;;;;;;5.05;1.80;;;23.00;54.40;;;;;;4124957;28;20419;-47
2021/04/16 08:30:56;;;;;;;4.05;1.63;;;23.00;54.40;;;;;;4115384;28;20509;-49
2021/04/16 08:33:03;;;;;;;4.82;1.52;;;23.00;54.40;;;;;;4117626;28;20139;-51
2021/04/16 08:35:20;;;;;;;4.32;1.80;;;23.00;54.40;;;;;;4121667;28;20037;-46
2021/04/16 08:37:31;;;;;;;4.80;1.77;;;23.00;54.60;;;;;;4118196;28;20480;-51
2021/04/16 08:39:42;;;;;;;3.47;1.70;;;23.00;54.70;;;;;;4129001;28;20418;-47
2021/04/16 08:41:54;;;;;;;4.15;1.70;;;23.00;54.70;;;;;;4138702;28;20496;-54
2021/04/16 08:44:01;;;;;;;3.67;1.38;;;23.00;54.80;;;;;;4132243;28;20050;-51
2021/04/16 08:46:25;;;;;;;3.22;1.58;;;23.00;54.90;;;;;;4119130;28;20141;-45
2021/04/16 08:48:51;;;;;;;3.70;1.60;;;23.00;54.90;;;;;;4116178;28;20041;-49
2021/04/16 08:51:04;;;;;;;8.82;2.03;;;23.00;54.90;;;;;;4122186;28;20590;-51
2021/04/16 08:53:06;;;;;;;4.38;1.55;;;23.10;54.70;;;;;;4133752;28;20026;-48
2021/04/16 08:55:32;;;;;;;5.20;2.25;;;23.00;54.40;;;;;;4134857;28;20033;-51
2021/04/16 08:57:40;;;;;;;7.05;1.88;;;23.00;54.40;;;;;;4135597;28;20037;-53
2021/04/16 09:00:05;;;;;;;4.30;1.90;;;23.00;54.50;;;;;;4136959;28;20053;-48
2021/04/16 09:02:22;;;;;;;12.77;2.00;;;23.00;54.40;;;;;;4129631;28;20541;-49
2021/04/16 09:04:47;;;;;;;4.32;1.88;;;23.00;54.50;;;;;;4131156;28;20038;-48
2021/04/16 09:06:57;;;;;;;5.25;1.83;;;23.00;54.50;;;;;;4130831;28;20033;-50
2021/04/16 09:09:01;;;;;;;6.57;1.92;;;23.00;54.50;;;;;;4132795;28;20037;-45
2021/04/16 09:11:04;;;;;;;6.25;1.70;;;23.00;54.60;;;;;;4131583;28;20037;-45
2021/04/16 09:13:10;;;;;;;4.38;2.17;;;23.00;54.70;;;;;;4139009;28;20479;-46
2021/04/16 09:15:21;;;;;;;5.78;1.80;;;23.00;54.60;;;;;;4128231;28;20149;-46
2021/04/16 09:17:52;;;;;;;7.80;1.73;;;23.00;54.70;;;;;;4129637;28;20041;-48
2021/04/16 09:20:00;;;;;;;6.45;2.00;;;23.00;54.70;;;;;;4128280;28;20105;-50
2021/04/16 09:22:05;;;;;;;5.40;1.88;;;23.00;54.80;;;;;;4116180;28;20246;-48
2021/04/16 09:24:13;;;;;;;5.25;1.85;;;23.00;54.80;;;;;;4128497;28;20045;-54
2021/04/16 09:26:49;;;;;;;4.40;2.08;;;23.00;54.80;;;;;;4131352;28;20033;-56
2021/04/16 09:28:55;;;;;;;4.38;2.00;;;23.00;54.70;;;;;;4136285;28;20076;-50
2021/04/16 09:31:24;;;;;;;6.70;2.13;;;23.00;54.40;;;;;;4131746;28;20042;-49
2021/04/16 09:33:36;;;;;;;6.18;1.90;;;23.00;55.10;;;;;;4126512;28;20047;-49
2021/04/16 09:35:38;;;;;;;4.28;1.77;;;22.90;54.30;;;;;;4118113;28;20034;-50
2021/04/16 09:37:43;;;;;;;12.50;2.20;;;23.00;54.30;;;;;;4125951;28;20022;-47
2021/04/16 09:40:14;;;;;;;5.93;2.33;;;22.90;54.40;;;;;;4117860;28;20045;-47
2021/04/16 09:42:39;;;;;;;4.85;2.05;;;23.00;54.50;;;;;;4130909;28;20048;-47
2021/04/16 09:44:54;;;;;;;5.00;1.83;;;23.00;54.50;;;;;;4132176;28;20092;-54
2021/04/16 09:47:03;;;;;;;4.20;1.63;;;23.00;54.50;;;;;;4135534;28;20332;-53
2021/04/16 09:49:12;;;;;;;4.70;1.75;;;23.00;54.50;;;;;;4119638;28;20145;-54
2021/04/16 09:51:36;;;;;;;3.35;1.60;;;22.90;54.40;;;;;;4133949;28;20042;-54
2021/04/16 09:53:39;;;;;;;4.25;1.65;;;22.90;54.50;;;;;;4129871;28;20042;-48
2021/04/16 09:55:58;;;;;;;3.15;1.80;;;23.00;54.50;;;;;;4142444;28;20060;-48
2021/04/16 09:58:00;;;;;;;3.13;1.48;;;22.90;54.40;;;;;;4135688;28;20038;-55
2021/04/16 10:00:38;;;;;;;3.70;1.52;;;22.90;54.40;;;;;;4135236;28;20041;-53
2021/04/16 10:02:40;;;;;;;2.88;1.52;;;22.90;54.30;;;;;;4127156;28;20116;-51
2021/04/16 10:05:10;;;;;;;5.88;1.77;;;22.90;54.30;;;;;;4121760;28;20026;-51
2021/04/16 10:07:14;;;;;;;3.47;1.73;;;22.90;54.20;;;;;;4134241;28;20582;-50
2021/04/16 10:09:19;;;;;;;3.05;1.38;;;22.90;54.20;;;;;;4133046;28;20604;-54
2021/04/16 10:11:21;;;;;;;4.50;2.17;;;22.90;54.00;;;;;;4140245;28;20029;-57
2021/04/16 10:13:36;;;;;;;6.07;2.22;;;22.90;52.30;;;;;;4138856;28;20033;-52
2021/04/16 10:15:43;;;;;;;3.33;1.58;;;22.90;51.40;;;;;;4137783;28;20437;-57
2021/04/16 10:18:21;;;;;;;6.32;2.00;;;22.80;50.90;;;;;;4135183;28;20113;-53
2021/04/16 10:20:25;;;;;;;5.53;1.90;;;22.80;51.00;;;;;;4132259;28;20040;-49
2021/04/16 10:22:31;;;;;;;4.88;2.10;;;22.70;50.80;;;;;;4119570;28;20137;-47
2021/04/16 10:46:26;;;;;;;5.53;2.20;;;22.70;53.30;;;;;;4134219;28;20578;-54
2021/04/16 11:17:45;;;;;;;3.95;1.90;;;22.70;53.50;;;;;;4140050;28;20430;-48
2021/04/16 12:39:47;;;;;;;8.13;2.00;;;22.60;54.30;;;;;;4132174;28;20044;-53
2021/04/16 12:41:55;;;;;;;5.95;2.17;;;22.60;54.20;;;;;;4130329;28;20144;-59
2021/04/16 12:43:58;;;;;;;6.35;1.83;;;22.60;54.00;;;;;;4136955;28;20053;-54
2021/04/16 12:46:01;;;;;;;6.25;1.85;;;22.50;54.00;;;;;;4137864;28;20396;-58
2021/04/16 12:48:03;;;;;;;5.22;1.70;;;22.60;54.00;;;;;;4129416;28;20054;-55
2021/04/16 12:50:07;;;;;;;6.47;1.58;;;22.60;54.00;;;;;;4133029;28;20029;-53
2021/04/16 12:52:08;;;;;;;;;;;22.50;54.10;;;;;;4136475;28;20025;-57
2021/04/16 12:54:11;;;;;;;5.90;1.70;;;22.50;54.00;;;;;;4134937;28;19962;-50
2021/04/16 12:56:18;;;;;;;4.38;1.40;;;22.50;54.00;;;;;;4133518;28;20404;-54
2021/04/16 12:58:30;;;;;;;4.75;1.70;;;22.50;54.10;;;;;;4130792;28;20057;-52
2021/04/16 13:00:39;;;;;;;5.57;2.00;;;22.50;54.00;;;;;;4134207;28;20033;-48
2021/04/16 13:02:42;;;;;;;4.97;1.65;;;22.50;54.10;;;;;;4137989;28;20232;-53
2021/04/16 13:04:44;;;;;;;6.15;1.95;;;22.50;54.50;;;;;;4133549;28;20750;-48
2021/04/16 13:06:48;;;;;;;6.38;1.77;;;22.50;54.60;;;;;;4128653;28;20255;-47
2021/04/16 13:08:50;;;;;;;6.45;1.70;;;22.50;54.60;;;;;;4122219;28;20042;-50